sensor_id;sensor_type;location;lat;lon;timestamp;P1;durP1;ratioP1;P2;durP2;ratioP2
35743;SDS011;21867;52.012;4.324;2023-03-26T00:00:32;18.63;;;3.97;;
35743;SDS011;21867;52.012;4.324;2023-03-26T00:02:59;17.73;;;4.73;;
35743;SDS011;21867;52.012;4.324;2023-03-26T00:05:27;16.80;;;4.03;;
35743;SDS011;21867;52.012;4.324;2023-03-26T00:07:54;19.23;;;4.60;;
35743;SDS011;21867;52.012;4.324;2023-03-26T00:10:33;15.93;;;4.70;;
35743;SDS011;21867;52.012;4.324;2023-03-26T00:13:01;14.47;;;4.10;;
35743;SDS011;21867;52.012;4.324;2023-03-26T00:15:30;13.47;;;4.63;;
35743;SDS011;21867;52.012;4.324;2023-03-26T00:17:58;16.17;;;4.90;;
35743;SDS011;21867;52.012;4.324;2023-03-26T00:26:56;21.50;;;5.27;;
35743;SDS011;21867;52.012;4.324;2023-03-26T00:29:23;12.83;;;5.47;;
35743;SDS011;21867;52.012;4.324;2023-03-26T00:31:52;17.57;;;5.17;;
35743;SDS011;21867;52.012;4.324;2023-03-26T00:34:19;15.83;;;4.40;;
35743;SDS011;21867;52.012;4.324;2023-03-26T00:36:47;24.57;;;6.30;;
35743;SDS011;21867;52.012;4.324;2023-03-26T00:42:04;27.40;;;6.77;;
35743;SDS011;21867;52.012;4.324;2023-03-26T00:44:32;28.17;;;5.90;;
35743;SDS011;21867;52.012;4.324;2023-03-26T00:47:01;29.73;;;7.40;;
35743;SDS011;21867;52.012;4.324;2023-03-26T00:49:28;25.33;;;7.87;;
35743;SDS011;21867;52.012;4.324;2023-03-26T00:51:55;33.90;;;8.60;;
35743;SDS011;21867;52.012;4.324;2023-03-26T00:54:35;28.40;;;9.20;;
35743;SDS011;21867;52.012;4.324;2023-03-26T01:00:28;31.23;;;7.20;;
35743;SDS011;21867;52.012;4.324;2023-03-26T01:02:57;31.33;;;7.63;;
35743;SDS011;21867;52.012;4.324;2023-03-26T01:05:40;33.30;;;8.40;;
35743;SDS011;21867;52.012;4.324;2023-03-26T01:08:12;33.37;;;7.57;;
35743;SDS011;21867;52.012;4.324;2023-03-26T01:10:40;29.33;;;8.17;;
35743;SDS011;21867;52.012;4.324;2023-03-26T01:13:08;38.67;;;10.23;;
35743;SDS011;21867;52.012;4.324;2023-03-26T01:15:51;34.97;;;8.37;;
35743;SDS011;21867;52.012;4.324;2023-03-26T01:18:20;35.10;;;8.50;;
35743;SDS011;21867;52.012;4.324;2023-03-26T01:20:48;31.17;;;8.40;;
35743;SDS011;21867;52.012;4.324;2023-03-26T01:23:19;25.40;;;6.27;;
35743;SDS011;21867;52.012;4.324;2023-03-26T01:32:16;32.97;;;8.20;;
35743;SDS011;21867;52.012;4.324;2023-03-26T01:34:47;33.27;;;7.93;;
35743;SDS011;21867;52.012;4.324;2023-03-26T01:37:19;46.73;;;10.97;;
35743;SDS011;21867;52.012;4.324;2023-03-26T01:39:49;27.90;;;7.73;;
35743;SDS011;21867;52.012;4.324;2023-03-26T01:42:20;36.13;;;8.80;;
35743;SDS011;21867;52.012;4.324;2023-03-26T01:45:08;32.67;;;8.10;;
35743;SDS011;21867;52.012;4.324;2023-03-26T01:47:37;31.47;;;8.50;;
35743;SDS011;21867;52.012;4.324;2023-03-26T01:50:06;31.20;;;8.57;;
35743;SDS011;21867;52.012;4.324;2023-03-26T01:52:34;33.33;;;7.43;;
35743;SDS011;21867;52.012;4.324;2023-03-26T02:00:41;25.40;;;8.10;;
35743;SDS011;21867;52.012;4.324;2023-03-26T02:03:15;39.30;;;9.10;;
35743;SDS011;21867;52.012;4.324;2023-03-26T02:05:48;28.83;;;7.50;;
35743;SDS011;21867;52.012;4.324;2023-03-26T02:08:20;35.83;;;8.73;;
35743;SDS011;21867;52.012;4.324;2023-03-26T02:10:50;39.93;;;8.67;;
35743;SDS011;21867;52.012;4.324;2023-03-26T02:15:55;37.67;;;9.23;;
35743;SDS011;21867;52.012;4.324;2023-03-26T02:18:24;40.57;;;9.27;;
35743;SDS011;21867;52.012;4.324;2023-03-26T02:20:52;39.97;;;9.87;;
35743;SDS011;21867;52.012;4.324;2023-03-26T02:23:20;39.53;;;9.57;;
35743;SDS011;21867;52.012;4.324;2023-03-26T02:25:47;37.80;;;8.57;;
35743;SDS011;21867;52.012;4.324;2023-03-26T02:37:29;32.97;;;6.77;;
35743;SDS011;21867;52.012;4.324;2023-03-26T02:40:05;47.80;;;9.17;;
35743;SDS011;21867;52.012;4.324;2023-03-26T02:42:32;43.00;;;10.07;;
35743;SDS011;21867;52.012;4.324;2023-03-26T02:45:15;35.37;;;8.33;;
35743;SDS011;21867;52.012;4.324;2023-03-26T02:48:01;30.47;;;8.23;;
35743;SDS011;21867;52.012;4.324;2023-03-26T02:50:43;36.73;;;7.53;;
35743;SDS011;21867;52.012;4.324;2023-03-26T02:53:33;38.07;;;7.93;;
35743;SDS011;21867;52.012;4.324;2023-03-26T02:56:17;30.83;;;8.07;;
35743;SDS011;21867;52.012;4.324;2023-03-26T02:59:17;29.47;;;7.67;;
35743;SDS011;21867;52.012;4.324;2023-03-26T03:01:49;34.97;;;8.83;;
35743;SDS011;21867;52.012;4.324;2023-03-26T03:04:17;41.03;;;8.70;;
35743;SDS011;21867;52.012;4.324;2023-03-26T03:06:46;38.27;;;8.07;;
35743;SDS011;21867;52.012;4.324;2023-03-26T03:16:00;37.77;;;8.33;;
35743;SDS011;21867;52.012;4.324;2023-03-26T03:18:28;25.73;;;7.33;;
35743;SDS011;21867;52.012;4.324;2023-03-26T03:20:56;29.40;;;6.90;;
35743;SDS011;21867;52.012;4.324;2023-03-26T03:23:24;28.70;;;7.20;;
35743;SDS011;21867;52.012;4.324;2023-03-26T03:25:58;22.43;;;6.73;;
35743;SDS011;21867;52.012;4.324;2023-03-26T03:28:25;32.93;;;8.17;;
35743;SDS011;21867;52.012;4.324;2023-03-26T03:30:53;26.53;;;6.87;;
35743;SDS011;21867;52.012;4.324;2023-03-26T03:33:28;31.30;;;7.03;;
35743;SDS011;21867;52.012;4.324;2023-03-26T03:35:55;25.23;;;6.90;;
35743;SDS011;21867;52.012;4.324;2023-03-26T03:38:23;23.80;;;6.53;;
35743;SDS011;21867;52.012;4.324;2023-03-26T03:40:52;39.10;;;7.73;;
35743;SDS011;21867;52.012;4.324;2023-03-26T03:43:37;23.63;;;7.57;;
35743;SDS011;21867;52.012;4.324;2023-03-26T03:46:14;27.60;;;6.80;;
35743;SDS011;21867;52.012;4.324;2023-03-26T03:48:48;21.00;;;6.17;;
35743;SDS011;21867;52.012;4.324;2023-03-26T03:51:20;31.93;;;7.87;;
35743;SDS011;21867;52.012;4.324;2023-03-26T04:01:01;26.50;;;6.97;;
35743;SDS011;21867;52.012;4.324;2023-03-26T04:03:53;27.53;;;7.00;;
35743;SDS011;21867;52.012;4.324;2023-03-26T04:06:24;25.23;;;8.77;;
35743;SDS011;21867;52.012;4.324;2023-03-26T04:08:52;29.60;;;9.23;;
35743;SDS011;21867;52.012;4.324;2023-03-26T04:11:20;28.00;;;6.87;;
35743;SDS011;21867;52.012;4.324;2023-03-26T04:14:29;29.40;;;7.20;;
35743;SDS011;21867;52.012;4.324;2023-03-26T04:17:03;30.03;;;7.17;;
35743;SDS011;21867;52.012;4.324;2023-03-26T04:19:34;27.87;;;6.70;;
35743;SDS011;21867;52.012;4.324;2023-03-26T04:22:04;28.53;;;7.93;;
35743;SDS011;21867;52.012;4.324;2023-03-26T04:31:20;18.80;;;7.37;;
35743;SDS011;21867;52.012;4.324;2023-03-26T04:33:48;26.13;;;8.67;;
35743;SDS011;21867;52.012;4.324;2023-03-26T04:36:17;23.87;;;7.67;;
35743;SDS011;21867;52.012;4.324;2023-03-26T04:38:47;26.13;;;7.37;;
35743;SDS011;21867;52.012;4.324;2023-03-26T04:41:19;22.20;;;6.37;;
35743;SDS011;21867;52.012;4.324;2023-03-26T04:46:52;28.90;;;7.03;;
35743;SDS011;21867;52.012;4.324;2023-03-26T04:49:42;26.50;;;7.40;;
35743;SDS011;21867;52.012;4.324;2023-03-26T04:52:13;23.93;;;6.53;;
35743;SDS011;21867;52.012;4.324;2023-03-26T05:01:17;23.73;;;7.07;;
35743;SDS011;21867;52.012;4.324;2023-03-26T05:03:45;17.73;;;6.57;;
35743;SDS011;21867;52.012;4.324;2023-03-26T05:06:13;28.43;;;7.60;;
35743;SDS011;21867;52.012;4.324;2023-03-26T05:08:42;23.53;;;6.80;;
35743;SDS011;21867;52.012;4.324;2023-03-26T05:11:18;23.07;;;6.60;;
35743;SDS011;21867;52.012;4.324;2023-03-26T05:16:44;30.43;;;7.80;;
35743;SDS011;21867;52.012;4.324;2023-03-26T05:19:12;26.40;;;6.83;;
35743;SDS011;21867;52.012;4.324;2023-03-26T05:21:40;20.00;;;7.30;;
35743;SDS011;21867;52.012;4.324;2023-03-26T05:30:45;17.57;;;6.17;;
35743;SDS011;21867;52.012;4.324;2023-03-26T05:33:13;21.07;;;5.77;;
35743;SDS011;21867;52.012;4.324;2023-03-26T05:35:57;31.97;;;7.40;;
35743;SDS011;21867;52.012;4.324;2023-03-26T05:38:25;28.30;;;7.63;;
35743;SDS011;21867;52.012;4.324;2023-03-26T05:40:56;18.03;;;5.87;;
35743;SDS011;21867;52.012;4.324;2023-03-26T05:43:39;27.90;;;7.87;;
35743;SDS011;21867;52.012;4.324;2023-03-26T05:46:14;22.20;;;7.27;;
35743;SDS011;21867;52.012;4.324;2023-03-26T05:48:42;20.83;;;7.70;;
35743;SDS011;21867;52.012;4.324;2023-03-26T05:51:09;28.23;;;7.47;;
35743;SDS011;21867;52.012;4.324;2023-03-26T06:00:24;23.30;;;6.60;;
35743;SDS011;21867;52.012;4.324;2023-03-26T06:02:53;16.10;;;6.00;;
35743;SDS011;21867;52.012;4.324;2023-03-26T06:05:44;19.03;;;6.10;;
35743;SDS011;21867;52.012;4.324;2023-03-26T06:08:17;25.70;;;7.67;;
35743;SDS011;21867;52.012;4.324;2023-03-26T06:10:49;26.17;;;7.73;;
35743;SDS011;21867;52.012;4.324;2023-03-26T06:13:16;26.67;;;7.80;;
35743;SDS011;21867;52.012;4.324;2023-03-26T06:15:45;30.20;;;6.97;;
35743;SDS011;21867;52.012;4.324;2023-03-26T06:18:22;27.00;;;7.13;;
35743;SDS011;21867;52.012;4.324;2023-03-26T06:21:18;25.30;;;8.27;;
35743;SDS011;21867;52.012;4.324;2023-03-26T06:30:36;24.50;;;6.57;;
35743;SDS011;21867;52.012;4.324;2023-03-26T06:33:17;25.43;;;6.97;;
35743;SDS011;21867;52.012;4.324;2023-03-26T06:35:49;25.07;;;6.57;;
35743;SDS011;21867;52.012;4.324;2023-03-26T06:38:17;22.10;;;6.60;;
35743;SDS011;21867;52.012;4.324;2023-03-26T06:40:44;28.67;;;6.87;;
35743;SDS011;21867;52.012;4.324;2023-03-26T06:43:24;22.27;;;6.60;;
35743;SDS011;21867;52.012;4.324;2023-03-26T06:45:54;26.20;;;6.83;;
35743;SDS011;21867;52.012;4.324;2023-03-26T06:48:33;26.70;;;6.40;;
35743;SDS011;21867;52.012;4.324;2023-03-26T06:51:26;18.70;;;6.50;;
35743;SDS011;21867;52.012;4.324;2023-03-26T06:54:13;23.37;;;6.30;;
35743;SDS011;21867;52.012;4.324;2023-03-26T06:56:52;23.10;;;6.83;;
35743;SDS011;21867;52.012;4.324;2023-03-26T06:59:51;20.13;;;7.37;;
35743;SDS011;21867;52.012;4.324;2023-03-26T07:02:48;33.07;;;8.70;;
35743;SDS011;21867;52.012;4.324;2023-03-26T07:05:34;17.33;;;6.37;;
35743;SDS011;21867;52.012;4.324;2023-03-26T07:08:22;30.67;;;8.23;;
35743;SDS011;21867;52.012;4.324;2023-03-26T07:11:10;23.67;;;8.17;;
35743;SDS011;21867;52.012;4.324;2023-03-26T07:14:09;29.87;;;9.30;;
35743;SDS011;21867;52.012;4.324;2023-03-26T07:16:47;26.70;;;8.97;;
35743;SDS011;21867;52.012;4.324;2023-03-26T07:19:28;25.07;;;8.40;;
35743;SDS011;21867;52.012;4.324;2023-03-26T07:21:56;25.57;;;8.87;;
35743;SDS011;21867;52.012;4.324;2023-03-26T07:24:44;26.87;;;7.53;;
35743;SDS011;21867;52.012;4.324;2023-03-26T07:27:37;22.13;;;7.73;;
35743;SDS011;21867;52.012;4.324;2023-03-26T07:30:08;19.23;;;7.93;;
35743;SDS011;21867;52.012;4.324;2023-03-26T07:32:49;15.27;;;6.53;;
35743;SDS011;21867;52.012;4.324;2023-03-26T07:35:45;22.83;;;8.47;;
35743;SDS011;21867;52.012;4.324;2023-03-26T07:38:44;20.47;;;8.13;;
35743;SDS011;21867;52.012;4.324;2023-03-26T07:41:34;21.33;;;8.13;;
35743;SDS011;21867;52.012;4.324;2023-03-26T07:44:34;20.13;;;7.23;;
35743;SDS011;21867;52.012;4.324;2023-03-26T07:47:25;18.87;;;7.23;;
35743;SDS011;21867;52.012;4.324;2023-03-26T07:50:15;23.77;;;7.63;;
35743;SDS011;21867;52.012;4.324;2023-03-26T07:53:07;19.67;;;7.23;;
35743;SDS011;21867;52.012;4.324;2023-03-26T07:55:56;12.23;;;4.43;;
35743;SDS011;21867;52.012;4.324;2023-03-26T07:58:50;7.73;;;4.63;;
35743;SDS011;21867;52.012;4.324;2023-03-26T08:01:36;12.83;;;4.70;;
35743;SDS011;21867;52.012;4.324;2023-03-26T08:04:13;7.33;;;4.60;;
35743;SDS011;21867;52.012;4.324;2023-03-26T08:07:14;4.53;;;3.30;;
35743;SDS011;21867;52.012;4.324;2023-03-26T08:10:11;7.70;;;3.73;;
35743;SDS011;21867;52.012;4.324;2023-03-26T08:12:58;7.43;;;4.10;;
35743;SDS011;21867;52.012;4.324;2023-03-26T08:15:29;9.67;;;4.90;;
35743;SDS011;21867;52.012;4.324;2023-03-26T08:17:59;10.53;;;5.37;;
35743;SDS011;21867;52.012;4.324;2023-03-26T08:20:31;11.10;;;5.67;;
35743;SDS011;21867;52.012;4.324;2023-03-26T08:23:04;15.13;;;6.03;;
35743;SDS011;21867;52.012;4.324;2023-03-26T08:25:33;17.13;;;7.23;;
35743;SDS011;21867;52.012;4.324;2023-03-26T08:28:07;12.93;;;6.40;;
35743;SDS011;21867;52.012;4.324;2023-03-26T08:30:39;14.23;;;6.57;;
35743;SDS011;21867;52.012;4.324;2023-03-26T08:33:10;16.23;;;7.13;;
35743;SDS011;21867;52.012;4.324;2023-03-26T08:35:38;19.67;;;6.97;;
35743;SDS011;21867;52.012;4.324;2023-03-26T08:38:05;17.60;;;7.43;;
35743;SDS011;21867;52.012;4.324;2023-03-26T08:40:58;14.50;;;6.23;;
35743;SDS011;21867;52.012;4.324;2023-03-26T08:43:43;10.83;;;6.40;;
35743;SDS011;21867;52.012;4.324;2023-03-26T08:49:04;13.40;;;6.10;;
35743;SDS011;21867;52.012;4.324;2023-03-26T08:54:25;14.43;;;5.80;;
35743;SDS011;21867;52.012;4.324;2023-03-26T08:57:02;14.80;;;5.60;;
35743;SDS011;21867;52.012;4.324;2023-03-26T08:59:37;10.33;;;5.63;;
35743;SDS011;21867;52.012;4.324;2023-03-26T09:02:14;10.53;;;5.83;;
35743;SDS011;21867;52.012;4.324;2023-03-26T09:04:50;10.20;;;4.93;;
35743;SDS011;21867;52.012;4.324;2023-03-26T09:07:33;9.03;;;4.80;;
35743;SDS011;21867;52.012;4.324;2023-03-26T09:15:41;14.83;;;5.33;;
35743;SDS011;21867;52.012;4.324;2023-03-26T09:18:35;9.63;;;4.97;;
35743;SDS011;21867;52.012;4.324;2023-03-26T09:21:12;10.70;;;5.20;;
35743;SDS011;21867;52.012;4.324;2023-03-26T09:26:27;6.60;;;3.27;;
35743;SDS011;21867;52.012;4.324;2023-03-26T09:31:53;9.50;;;4.93;;
35743;SDS011;21867;52.012;4.324;2023-03-26T09:34:28;12.40;;;6.53;;
35743;SDS011;21867;52.012;4.324;2023-03-26T09:37:03;14.07;;;6.10;;
35743;SDS011;21867;52.012;4.324;2023-03-26T09:39:38;11.13;;;6.27;;
35743;SDS011;21867;52.012;4.324;2023-03-26T09:42:10;13.97;;;7.03;;
35743;SDS011;21867;52.012;4.324;2023-03-26T09:44:50;17.57;;;6.80;;
35743;SDS011;21867;52.012;4.324;2023-03-26T09:50:21;12.97;;;7.83;;
35743;SDS011;21867;52.012;4.324;2023-03-26T09:52:56;18.80;;;9.90;;
35743;SDS011;21867;52.012;4.324;2023-03-26T09:55:35;12.77;;;8.93;;
35743;SDS011;21867;52.012;4.324;2023-03-26T10:01:04;15.80;;;10.03;;
35743;SDS011;21867;52.012;4.324;2023-03-26T10:03:36;21.80;;;10.63;;
35743;SDS011;21867;52.012;4.324;2023-03-26T10:08:58;21.93;;;10.30;;
35743;SDS011;21867;52.012;4.324;2023-03-26T10:11:30;11.73;;;8.43;;
35743;SDS011;21867;52.012;4.324;2023-03-26T10:14:02;14.23;;;8.50;;
35743;SDS011;21867;52.012;4.324;2023-03-26T10:16:33;14.23;;;8.40;;
35743;SDS011;21867;52.012;4.324;2023-03-26T10:19:13;10.50;;;7.10;;
35743;SDS011;21867;52.012;4.324;2023-03-26T10:21:46;14.10;;;6.50;;
35743;SDS011;21867;52.012;4.324;2023-03-26T10:24:21;11.73;;;6.20;;
35743;SDS011;21867;52.012;4.324;2023-03-26T10:26:56;10.43;;;6.17;;
35743;SDS011;21867;52.012;4.324;2023-03-26T10:29:40;10.07;;;5.60;;
35743;SDS011;21867;52.012;4.324;2023-03-26T10:32:15;9.67;;;4.40;;
35743;SDS011;21867;52.012;4.324;2023-03-26T10:34:49;9.73;;;4.20;;
35743;SDS011;21867;52.012;4.324;2023-03-26T10:37:20;15.67;;;5.10;;
35743;SDS011;21867;52.012;4.324;2023-03-26T10:40:03;12.37;;;4.80;;
35743;SDS011;21867;52.012;4.324;2023-03-26T10:45:46;10.37;;;3.93;;
35743;SDS011;21867;52.012;4.324;2023-03-26T10:48:18;10.40;;;4.00;;
35743;SDS011;21867;52.012;4.324;2023-03-26T10:50:51;9.40;;;3.80;;
35743;SDS011;21867;52.012;4.324;2023-03-26T10:59:43;8.37;;;3.67;;
35743;SDS011;21867;52.012;4.324;2023-03-26T11:02:20;14.13;;;4.20;;
35743;SDS011;21867;52.012;4.324;2023-03-26T11:07:32;16.47;;;4.03;;
35743;SDS011;21867;52.012;4.324;2023-03-26T11:10:01;11.90;;;4.70;;
35743;SDS011;21867;52.012;4.324;2023-03-26T11:15:16;10.53;;;4.90;;
35743;SDS011;21867;52.012;4.324;2023-03-26T11:17:47;14.20;;;5.47;;
35743;SDS011;21867;52.012;4.324;2023-03-26T11:20:18;12.20;;;4.40;;
35743;SDS011;21867;52.012;4.324;2023-03-26T11:29:35;17.27;;;4.57;;
35743;SDS011;21867;52.012;4.324;2023-03-26T11:32:08;15.53;;;4.70;;
35743;SDS011;21867;52.012;4.324;2023-03-26T11:34:37;18.83;;;5.30;;
35743;SDS011;21867;52.012;4.324;2023-03-26T11:37:10;12.23;;;4.43;;
35743;SDS011;21867;52.012;4.324;2023-03-26T11:39:40;15.97;;;5.00;;
35743;SDS011;21867;52.012;4.324;2023-03-26T11:42:10;10.50;;;3.70;;
35743;SDS011;21867;52.012;4.324;2023-03-26T11:44:42;8.17;;;3.40;;
35743;SDS011;21867;52.012;4.324;2023-03-26T11:47:11;12.87;;;4.27;;
35743;SDS011;21867;52.012;4.324;2023-03-26T11:49:41;18.20;;;4.40;;
35743;SDS011;21867;52.012;4.324;2023-03-26T11:52:10;13.33;;;5.00;;
35743;SDS011;21867;52.012;4.324;2023-03-26T11:54:37;16.53;;;4.90;;
35743;SDS011;21867;52.012;4.324;2023-03-26T11:57:06;13.10;;;4.03;;
35743;SDS011;21867;52.012;4.324;2023-03-26T11:59:36;11.70;;;3.67;;
35743;SDS011;21867;52.012;4.324;2023-03-26T12:02:24;11.20;;;4.03;;
35743;SDS011;21867;52.012;4.324;2023-03-26T12:05:02;15.30;;;5.07;;
35743;SDS011;21867;52.012;4.324;2023-03-26T12:07:32;12.17;;;3.47;;
35743;SDS011;21867;52.012;4.324;2023-03-26T12:10:00;14.00;;;3.17;;
35743;SDS011;21867;52.012;4.324;2023-03-26T12:12:45;7.70;;;3.43;;
35743;SDS011;21867;52.012;4.324;2023-03-26T12:15:13;4.67;;;2.20;;
35743;SDS011;21867;52.012;4.324;2023-03-26T12:17:42;13.80;;;4.10;;
35743;SDS011;21867;52.012;4.324;2023-03-26T12:20:25;9.43;;;3.40;;
35743;SDS011;21867;52.012;4.324;2023-03-26T12:22:56;10.33;;;3.47;;
35743;SDS011;21867;52.012;4.324;2023-03-26T12:25:27;8.47;;;3.60;;
35743;SDS011;21867;52.012;4.324;2023-03-26T12:27:56;10.80;;;4.50;;
35743;SDS011;21867;52.012;4.324;2023-03-26T12:30:26;13.80;;;3.27;;
35743;SDS011;21867;52.012;4.324;2023-03-26T12:32:56;12.03;;;3.30;;
35743;SDS011;21867;52.012;4.324;2023-03-26T12:35:25;7.60;;;2.33;;
35743;SDS011;21867;52.012;4.324;2023-03-26T12:38:12;16.40;;;3.23;;
35743;SDS011;21867;52.012;4.324;2023-03-26T12:40:40;10.90;;;2.57;;
35743;SDS011;21867;52.012;4.324;2023-03-26T12:43:19;7.37;;;2.57;;
35743;SDS011;21867;52.012;4.324;2023-03-26T12:46:21;3.90;;;2.17;;
35743;SDS011;21867;52.012;4.324;2023-03-26T12:49:10;4.40;;;2.47;;
35743;SDS011;21867;52.012;4.324;2023-03-26T12:51:41;8.47;;;2.97;;
35743;SDS011;21867;52.012;4.324;2023-03-26T12:54:18;4.30;;;3.07;;
35743;SDS011;21867;52.012;4.324;2023-03-26T12:56:48;9.30;;;3.13;;
35743;SDS011;21867;52.012;4.324;2023-03-26T12:59:45;4.00;;;2.43;;
35743;SDS011;21867;52.012;4.324;2023-03-26T13:02:22;12.97;;;4.20;;
35743;SDS011;21867;52.012;4.324;2023-03-26T13:04:56;5.73;;;2.83;;
35743;SDS011;21867;52.012;4.324;2023-03-26T13:07:36;9.13;;;3.50;;
35743;SDS011;21867;52.012;4.324;2023-03-26T13:10:14;7.57;;;3.43;;
35743;SDS011;21867;52.012;4.324;2023-03-26T13:12:50;11.97;;;3.10;;
35743;SDS011;21867;52.012;4.324;2023-03-26T13:15:21;7.13;;;2.33;;
35743;SDS011;21867;52.012;4.324;2023-03-26T13:17:52;8.70;;;3.10;;
35743;SDS011;21867;52.012;4.324;2023-03-26T13:20:25;7.63;;;3.13;;
35743;SDS011;21867;52.012;4.324;2023-03-26T13:22:56;11.47;;;3.30;;
35743;SDS011;21867;52.012;4.324;2023-03-26T13:25:30;9.90;;;2.77;;
35743;SDS011;21867;52.012;4.324;2023-03-26T13:28:08;10.03;;;3.80;;
35743;SDS011;21867;52.012;4.324;2023-03-26T13:30:40;10.90;;;3.60;;
35743;SDS011;21867;52.012;4.324;2023-03-26T13:33:15;6.90;;;3.40;;
35743;SDS011;21867;52.012;4.324;2023-03-26T13:35:48;9.27;;;3.70;;
35743;SDS011;21867;52.012;4.324;2023-03-26T13:38:28;14.13;;;6.23;;
35743;SDS011;21867;52.012;4.324;2023-03-26T13:43:45;8.30;;;3.00;;
35743;SDS011;21867;52.012;4.324;2023-03-26T13:46:20;11.17;;;2.97;;
35743;SDS011;21867;52.012;4.324;2023-03-26T13:48:52;10.63;;;3.30;;
35743;SDS011;21867;52.012;4.324;2023-03-26T13:51:42;11.17;;;2.67;;
35743;SDS011;21867;52.012;4.324;2023-03-26T13:57:04;8.20;;;3.50;;
35743;SDS011;21867;52.012;4.324;2023-03-26T13:59:34;10.53;;;3.50;;
35743;SDS011;21867;52.012;4.324;2023-03-26T14:02:07;15.37;;;3.67;;
35743;SDS011;21867;52.012;4.324;2023-03-26T14:04:37;6.17;;;3.23;;
35743;SDS011;21867;52.012;4.324;2023-03-26T14:07:08;11.60;;;3.27;;
35743;SDS011;21867;52.012;4.324;2023-03-26T14:09:39;8.33;;;3.37;;
35743;SDS011;21867;52.012;4.324;2023-03-26T14:12:15;11.60;;;3.70;;
35743;SDS011;21867;52.012;4.324;2023-03-26T14:14:48;9.53;;;3.40;;
35743;SDS011;21867;52.012;4.324;2023-03-26T14:17:16;10.60;;;3.17;;
35743;SDS011;21867;52.012;4.324;2023-03-26T14:22:44;23.17;;;4.83;;
35743;SDS011;21867;52.012;4.324;2023-03-26T14:25:18;55.80;;;7.13;;
35743;SDS011;21867;52.012;4.324;2023-03-26T14:33:34;8.67;;;2.60;;
35743;SDS011;21867;52.012;4.324;2023-03-26T14:36:05;8.83;;;2.70;;
35743;SDS011;21867;52.012;4.324;2023-03-26T14:41:23;7.63;;;2.80;;
35743;SDS011;21867;52.012;4.324;2023-03-26T14:43:58;6.33;;;2.73;;
35743;SDS011;21867;52.012;4.324;2023-03-26T14:46:40;9.40;;;2.53;;
35743;SDS011;21867;52.012;4.324;2023-03-26T14:49:28;6.90;;;2.63;;
35743;SDS011;21867;52.012;4.324;2023-03-26T14:52:02;8.53;;;2.63;;
35743;SDS011;21867;52.012;4.324;2023-03-26T14:54:32;8.23;;;3.20;;
35743;SDS011;21867;52.012;4.324;2023-03-26T15:17:21;14.83;;;4.27;;
35743;SDS011;21867;52.012;4.324;2023-03-26T15:22:50;9.03;;;3.73;;
35743;SDS011;21867;52.012;4.324;2023-03-26T15:34:44;12.60;;;3.40;;
35743;SDS011;21867;52.012;4.324;2023-03-26T15:37:25;9.37;;;2.47;;
35743;SDS011;21867;52.012;4.324;2023-03-26T15:40:13;8.17;;;3.17;;
35743;SDS011;21867;52.012;4.324;2023-03-26T15:42:57;14.73;;;3.77;;
35743;SDS011;21867;52.012;4.324;2023-03-26T15:51:23;10.63;;;3.50;;
35743;SDS011;21867;52.012;4.324;2023-03-26T15:53:54;9.30;;;3.40;;
35743;SDS011;21867;52.012;4.324;2023-03-26T16:01:59;8.90;;;2.30;;
35743;SDS011;21867;52.012;4.324;2023-03-26T16:04:30;7.73;;;2.60;;
35743;SDS011;21867;52.012;4.324;2023-03-26T16:07:05;7.47;;;2.50;;
35743;SDS011;21867;52.012;4.324;2023-03-26T16:09:37;13.03;;;3.07;;
35743;SDS011;21867;52.012;4.324;2023-03-26T16:12:28;8.27;;;2.50;;
35743;SDS011;21867;52.012;4.324;2023-03-26T16:20:28;13.37;;;2.90;;
35743;SDS011;21867;52.012;4.324;2023-03-26T16:22:58;10.97;;;2.30;;
35743;SDS011;21867;52.012;4.324;2023-03-26T16:28:33;13.20;;;3.03;;
35743;SDS011;21867;52.012;4.324;2023-03-26T16:34:20;8.77;;;2.43;;
35743;SDS011;21867;52.012;4.324;2023-03-26T16:36:51;8.63;;;2.60;;
35743;SDS011;21867;52.012;4.324;2023-03-26T16:39:22;8.23;;;3.00;;
35743;SDS011;21867;52.012;4.324;2023-03-26T16:41:50;6.07;;;2.23;;
35743;SDS011;21867;52.012;4.324;2023-03-26T16:44:26;10.30;;;3.10;;
35743;SDS011;21867;52.012;4.324;2023-03-26T16:46:57;9.93;;;2.60;;
35743;SDS011;21867;52.012;4.324;2023-03-26T16:49:34;5.53;;;2.50;;
35743;SDS011;21867;52.012;4.324;2023-03-26T16:52:05;12.70;;;3.13;;
35743;SDS011;21867;52.012;4.324;2023-03-26T16:58:27;7.73;;;2.90;;
35743;SDS011;21867;52.012;4.324;2023-03-26T17:01:02;11.77;;;2.80;;
35743;SDS011;21867;52.012;4.324;2023-03-26T17:03:36;6.43;;;2.40;;
35743;SDS011;21867;52.012;4.324;2023-03-26T17:06:10;5.90;;;2.97;;
35743;SDS011;21867;52.012;4.324;2023-03-26T17:08:41;6.70;;;2.23;;
35743;SDS011;21867;52.012;4.324;2023-03-26T17:11:18;8.57;;;2.37;;
35743;SDS011;21867;52.012;4.324;2023-03-26T17:13:49;4.27;;;2.10;;
35743;SDS011;21867;52.012;4.324;2023-03-26T17:16:20;7.17;;;2.83;;
35743;SDS011;21867;52.012;4.324;2023-03-26T17:18:51;9.40;;;2.50;;
35743;SDS011;21867;52.012;4.324;2023-03-26T17:21:22;8.07;;;2.50;;
35743;SDS011;21867;52.012;4.324;2023-03-26T17:24:00;7.60;;;2.17;;
35743;SDS011;21867;52.012;4.324;2023-03-26T17:26:32;11.37;;;3.30;;
35743;SDS011;21867;52.012;4.324;2023-03-26T17:29:16;7.70;;;1.97;;
35743;SDS011;21867;52.012;4.324;2023-03-26T17:31:48;9.97;;;2.63;;
35743;SDS011;21867;52.012;4.324;2023-03-26T17:34:38;3.87;;;2.13;;
35743;SDS011;21867;52.012;4.324;2023-03-26T17:37:08;6.97;;;3.00;;
35743;SDS011;21867;52.012;4.324;2023-03-26T17:43:33;9.50;;;2.50;;
35743;SDS011;21867;52.012;4.324;2023-03-26T17:46:04;4.60;;;2.63;;
35743;SDS011;21867;52.012;4.324;2023-03-26T17:48:36;6.23;;;2.30;;
35743;SDS011;21867;52.012;4.324;2023-03-26T17:51:12;8.10;;;2.57;;
35743;SDS011;21867;52.012;4.324;2023-03-26T17:53:43;6.63;;;2.77;;
35743;SDS011;21867;52.012;4.324;2023-03-26T17:56:12;9.80;;;3.30;;
35743;SDS011;21867;52.012;4.324;2023-03-26T17:58:41;19.70;;;3.53;;
35743;SDS011;21867;52.012;4.324;2023-03-26T18:01:15;7.07;;;2.80;;
35743;SDS011;21867;52.012;4.324;2023-03-26T18:03:46;13.30;;;3.23;;
35743;SDS011;21867;52.012;4.324;2023-03-26T18:06:29;7.53;;;2.90;;
35743;SDS011;21867;52.012;4.324;2023-03-26T18:09:03;8.30;;;2.30;;
35743;SDS011;21867;52.012;4.324;2023-03-26T18:11:43;8.60;;;2.87;;
35743;SDS011;21867;52.012;4.324;2023-03-26T18:17:02;5.47;;;2.47;;
35743;SDS011;21867;52.012;4.324;2023-03-26T18:19:29;9.10;;;2.87;;
35743;SDS011;21867;52.012;4.324;2023-03-26T18:22:13;8.67;;;2.40;;
35743;SDS011;21867;52.012;4.324;2023-03-26T18:24:43;10.63;;;2.53;;
35743;SDS011;21867;52.012;4.324;2023-03-26T18:27:11;13.47;;;2.73;;
35743;SDS011;21867;52.012;4.324;2023-03-26T18:30:12;8.07;;;2.63;;
35743;SDS011;21867;52.012;4.324;2023-03-26T18:32:48;4.50;;;2.23;;
35743;SDS011;21867;52.012;4.324;2023-03-26T18:35:17;9.03;;;2.63;;
35743;SDS011;21867;52.012;4.324;2023-03-26T18:37:45;7.73;;;2.90;;
35743;SDS011;21867;52.012;4.324;2023-03-26T18:43:18;5.10;;;2.23;;
35743;SDS011;21867;52.012;4.324;2023-03-26T18:52:32;9.10;;;3.77;;
35743;SDS011;21867;52.012;4.324;2023-03-26T18:54:59;6.90;;;2.53;;
35743;SDS011;21867;52.012;4.324;2023-03-26T18:57:28;10.47;;;4.40;;
35743;SDS011;21867;52.012;4.324;2023-03-26T18:59:59;11.53;;;3.60;;
35743;SDS011;21867;52.012;4.324;2023-03-26T19:02:36;4.87;;;2.60;;
35743;SDS011;21867;52.012;4.324;2023-03-26T19:05:05;7.97;;;4.40;;
35743;SDS011;21867;52.012;4.324;2023-03-26T19:07:34;8.60;;;5.77;;
35743;SDS011;21867;52.012;4.324;2023-03-26T19:10:01;8.57;;;3.87;;
35743;SDS011;21867;52.012;4.324;2023-03-26T19:18:50;6.77;;;2.83;;